createdAt,value
2023-05-12T00:01:53.145Z,94890.13
2023-05-12T00:04:19.801Z,94882.31
2023-05-12T00:06:46.379Z,94883.81
2023-05-12T00:09:12.980Z,94877.78
2023-05-12T00:11:40.005Z,94888.28
2023-05-12T00:14:07.095Z,94886.38
2023-05-12T00:16:33.674Z,94882.97
2023-05-12T00:19:00.731Z,94884.50
2023-05-12T00:21:27.404Z,94884.50
2023-05-12T00:23:54.040Z,94878.91
2023-05-12T00:26:21.002Z,94871.78
2023-05-12T00:28:48.819Z,94871.09
2023-05-12T00:31:15.894Z,94875.59
2023-05-12T00:33:42.803Z,94869.66
2023-05-12T00:36:09.625Z,94867.44
2023-05-12T00:38:37.480Z,94867.91
2023-05-12T00:41:04.782Z,94866.78
2023-05-12T00:43:32.091Z,94864.44
2023-05-12T00:45:59.470Z,94856.53
2023-05-12T00:48:26.927Z,94851.63
2023-05-12T00:50:54.737Z,94860.66
2023-05-12T00:53:21.506Z,94858.44
2023-05-12T00:55:48.094Z,94856.88
2023-05-12T00:58:14.903Z,94853.16
2023-05-12T01:00:41.435Z,94851.63
2023-05-12T01:03:08.662Z,94852.63
2023-05-12T01:05:42.640Z,94847.00
2023-05-12T01:08:10.006Z,94852.28
2023-05-12T01:10:36.954Z,94850.09
2023-05-12T01:13:03.533Z,94843.78
2023-05-12T01:15:32.289Z,94846.06
2023-05-12T01:18:02.312Z,94843.78
2023-05-12T01:20:30.082Z,94841.56
2023-05-12T01:22:58.987Z,94843.41
2023-05-12T01:25:29.520Z,94850.19
2023-05-12T01:27:56.487Z,94850.13
2023-05-12T01:30:24.943Z,94839.28
2023-05-12T01:32:52.361Z,94848.34
2023-05-12T01:35:19.411Z,94840.44
2023-05-12T01:37:46.433Z,94843.16
2023-05-12T01:40:13.372Z,94851.03
2023-05-12T01:42:42.046Z,94845.00
2023-05-12T01:45:09.300Z,94849.56
2023-05-12T01:47:36.154Z,94844.09
2023-05-12T01:50:03.289Z,94846.38
2023-05-12T01:52:29.855Z,94845.97
2023-05-12T01:54:56.530Z,94838.53
2023-05-12T01:57:23.065Z,94853.91
2023-05-12T01:59:49.585Z,94845.03
2023-05-12T02:02:16.351Z,94845.75
2023-05-12T02:04:43.307Z,94852.44
2023-05-12T02:07:10.549Z,94854.75
2023-05-12T02:09:37.066Z,94858.53
2023-05-12T02:12:04.347Z,94847.22
2023-05-12T02:14:30.881Z,94851.28
2023-05-12T02:16:57.459Z,94853.94
2023-05-12T02:19:24.012Z,94848.34
2023-05-12T02:21:50.663Z,94845.31
2023-05-12T02:24:17.446Z,94847.19
2023-05-12T02:26:44.124Z,94842.66
2023-05-12T02:29:13.675Z,94841.91
2023-05-12T02:31:40.615Z,94832.16
2023-05-12T02:34:07.257Z,94847.16
2023-05-12T02:36:33.957Z,94844.94
2023-05-12T02:39:00.603Z,94845.72
2023-05-12T02:41:27.139Z,94847.25
2023-05-12T02:43:53.779Z,94842.00
2023-05-12T02:46:20.459Z,94848.81
2023-05-12T02:48:47.339Z,94835.66
2023-05-12T02:51:13.880Z,94845.09
2023-05-12T02:53:40.487Z,94835.28
2023-05-12T02:56:07.720Z,94837.53
2023-05-12T02:58:35.054Z,94837.47
2023-05-12T03:01:10.001Z,94844.94
2023-05-12T03:03:38.387Z,94843.06
2023-05-12T03:06:06.160Z,94841.91
2023-05-12T03:08:33.240Z,94842.63
2023-05-12T03:10:59.803Z,94838.97
2023-05-12T03:13:26.342Z,94833.72
2023-05-12T03:15:52.937Z,94829.56
2023-05-12T03:18:19.752Z,94837.69
2023-05-12T03:20:46.956Z,94830.50
2023-05-12T03:23:13.587Z,94827.53
2023-05-12T03:25:40.129Z,94828.38
2023-05-12T03:28:06.692Z,94826.03
2023-05-12T03:30:33.373Z,94821.25
2023-05-12T03:33:00.225Z,94826.56
2023-05-12T03:35:27.071Z,94828.88
2023-05-12T03:37:53.697Z,94817.97
2023-05-12T03:40:20.622Z,94826.25
2023-05-12T03:42:47.534Z,94821.72
2023-05-12T03:45:14.267Z,94822.50
2023-05-12T03:47:41.136Z,94826.59
2023-05-12T03:50:08.285Z,94820.91
2023-05-12T03:52:34.995Z,94821.69
2023-05-12T03:55:01.575Z,94815.63
2023-05-12T03:57:28.710Z,94822.41
2023-05-12T03:59:55.225Z,94813.72
2023-05-12T04:02:21.792Z,94818.59
2023-05-12T04:04:48.747Z,94820.97
2023-05-12T04:07:15.336Z,94813.50
2023-05-12T04:09:42.082Z,94810.88
2023-05-12T04:12:08.651Z,94807.00
2023-05-12T04:14:42.309Z,94812.69
2023-05-12T04:17:09.682Z,94811.84
2023-05-12T04:19:36.257Z,94808.69
2023-05-12T04:22:02.873Z,94813.34
2023-05-12T04:24:29.522Z,94817.00
2023-05-12T04:26:57.795Z,94814.81
2023-05-12T04:29:24.342Z,94817.09
2023-05-12T04:31:51.075Z,94814.75
2023-05-12T04:34:17.841Z,94821.53
2023-05-12T04:36:44.379Z,94820.41
2023-05-12T04:39:10.966Z,94823.53
2023-05-12T04:41:37.721Z,94823.22
2023-05-12T04:44:04.507Z,94821.22
2023-05-12T04:46:31.111Z,94822.63
2023-05-12T04:48:57.712Z,94830.50
2023-05-12T04:51:24.284Z,94831.28
2023-05-12T04:53:50.899Z,94838.75
2023-05-12T04:56:17.673Z,94826.66
2023-05-12T04:58:44.375Z,94828.03
2023-05-12T05:01:12.497Z,94825.03
2023-05-12T05:03:40.107Z,94831.81
2023-05-12T05:06:07.020Z,94841.63
2023-05-12T05:08:33.572Z,94836.03
2023-05-12T05:11:00.167Z,94845.00
2023-05-12T05:13:26.717Z,94829.50
2023-05-12T05:15:54.166Z,94834.34
2023-05-12T05:18:23.993Z,94833.91
2023-05-12T05:20:57.143Z,94842.94
2023-05-12T05:23:24.821Z,94850.69
2023-05-12T05:25:51.563Z,94845.97
2023-05-12T05:28:18.122Z,94843.69
2023-05-12T05:30:44.673Z,94841.41
2023-05-12T05:33:13.103Z,94836.13
2023-05-12T05:35:40.258Z,94847.81
2023-05-12T05:38:07.371Z,94845.00
2023-05-12T05:40:44.880Z,94848.56
2023-05-12T05:43:18.684Z,94856.06
2023-05-12T05:45:45.564Z,94853.06
2023-05-12T05:48:12.517Z,94851.69
2023-05-12T05:50:39.320Z,94853.19
2023-05-12T05:53:06.695Z,94851.41
2023-05-12T05:55:33.267Z,94851.22
2023-05-12T05:57:59.853Z,94857.13
2023-05-12T06:00:26.704Z,94844.81
2023-05-12T06:02:53.338Z,94854.28
2023-05-12T06:05:20.272Z,94859.59
2023-05-12T06:07:47.117Z,94859.66
2023-05-12T06:10:14.021Z,94846.03
2023-05-12T06:12:41.222Z,94852.53
2023-05-12T06:15:09.461Z,94851.22
2023-05-12T06:17:36.094Z,94844.13
2023-05-12T06:20:03.446Z,94848.44
2023-05-12T06:22:29.992Z,94850.41
2023-05-12T06:24:56.643Z,94857.22
2023-05-12T06:27:23.360Z,94859.41
2023-05-12T06:29:51.764Z,94857.19
2023-05-12T06:32:18.819Z,94854.78
2023-05-12T06:34:45.460Z,94856.50
2023-05-12T06:37:12.088Z,94862.13
2023-05-12T06:39:38.650Z,94853.19
2023-05-12T06:42:05.578Z,94865.91
2023-05-12T06:44:32.219Z,94862.69
2023-05-12T06:46:58.985Z,94864.59
2023-05-12T06:49:25.716Z,94861.47
2023-05-12T06:51:52.283Z,94853.34
2023-05-12T06:54:18.918Z,94867.50
2023-05-12T06:56:45.654Z,94862.03
2023-05-12T06:59:12.712Z,94868.00
2023-05-12T07:01:39.366Z,94862.09
2023-05-12T07:04:06.435Z,94854.56
2023-05-12T07:06:34.489Z,94851.53
2023-05-12T07:09:01.042Z,94861.91
2023-05-12T07:11:27.595Z,94855.47
2023-05-12T07:13:54.267Z,94857.31
2023-05-12T07:16:21.028Z,94859.03
2023-05-12T07:18:47.725Z,94854.66
2023-05-12T07:21:14.551Z,94865.63
2023-05-12T07:23:41.308Z,94860.16
2023-05-12T07:26:08.032Z,94864.06
2023-05-12T07:28:36.626Z,94863.38
2023-05-12T07:31:04.225Z,94861.19
2023-05-12T07:33:31.466Z,94855.34
2023-05-12T07:35:58.200Z,94850.47
2023-05-12T07:38:25.002Z,94858.19
2023-05-12T07:40:51.711Z,94859.41
2023-05-12T07:43:18.442Z,94858.72
2023-05-12T07:45:46.271Z,94849.63
2023-05-12T07:48:13.485Z,94853.56
2023-05-12T07:50:40.617Z,94858.88
2023-05-12T07:53:07.290Z,94854.28
2023-05-12T07:55:34.179Z,94863.22
2023-05-12T07:58:01.123Z,94858.16
2023-05-12T08:00:28.029Z,94855.63
2023-05-12T08:02:54.974Z,94851.75
2023-05-12T08:05:22.301Z,94848.28
2023-05-12T08:07:49.026Z,94853.59
2023-05-12T08:10:16.520Z,94854.50
2023-05-12T08:12:43.282Z,94848.78
2023-05-12T08:15:10.400Z,94845.78
2023-05-12T08:17:37.101Z,94836.97
2023-05-12T08:20:04.543Z,94847.34
2023-05-12T08:22:31.462Z,94840.59
2023-05-12T08:24:58.302Z,94852.91
2023-05-12T08:27:25.147Z,94850.03
2023-05-12T08:29:51.896Z,94858.06
2023-05-12T08:32:18.540Z,94857.38
2023-05-12T08:34:45.185Z,94853.84
2023-05-12T08:37:12.021Z,94851.72
2023-05-12T08:39:38.778Z,94856.38
2023-05-12T08:42:23.119Z,94854.91
2023-05-12T08:44:50.082Z,94862.72
2023-05-12T08:47:18.826Z,94859.66
2023-05-12T08:49:46.660Z,94846.44
2023-05-12T08:52:15.169Z,94853.00
2023-05-12T08:54:52.206Z,94850.97
2023-05-12T08:57:23.273Z,94839.19
2023-05-12T08:59:53.314Z,94851.41
2023-05-12T09:02:22.899Z,94850.88
2023-05-12T09:04:51.278Z,94847.81
2023-05-12T09:07:24.374Z,94835.81
2023-05-12T09:09:56.818Z,94834.31
2023-05-12T09:12:26.758Z,94834.78
2023-05-12T09:15:10.486Z,94838.34
2023-05-12T09:17:37.750Z,94828.88
2023-05-12T09:20:05.700Z,94829.47
2023-05-12T09:22:36.924Z,94829.75
2023-05-12T09:25:17.130Z,94834.75
2023-05-12T09:27:44.157Z,94830.06
2023-05-12T09:30:11.154Z,94818.41
2023-05-12T09:32:37.754Z,94832.19
2023-05-12T09:35:13.080Z,94824.94
2023-05-12T09:37:40.592Z,94817.59
2023-05-12T09:40:08.579Z,94823.06
2023-05-12T09:42:36.186Z,94819.94
2023-05-12T09:45:06.434Z,94822.47
2023-05-12T09:47:40.668Z,94814.09
2023-05-12T09:50:08.749Z,94812.41
2023-05-12T09:52:39.534Z,94813.78
2023-05-12T09:55:13.236Z,94810.69
2023-05-12T09:57:41.878Z,94810.66
2023-05-12T10:00:20.805Z,94797.34
2023-05-12T10:02:57.080Z,94817.91
2023-05-12T10:05:24.346Z,94814.47
2023-05-12T10:07:54.316Z,94814.09
2023-05-12T10:10:25.553Z,94823.47
2023-05-12T10:12:52.523Z,94812.56
2023-05-12T10:15:21.232Z,94810.31
2023-05-12T10:17:50.853Z,94816.97
2023-05-12T10:20:19.169Z,94813.19
2023-05-12T10:22:48.939Z,94815.00
2023-05-12T10:25:17.825Z,94796.16
2023-05-12T10:27:44.691Z,94798.31
2023-05-12T10:30:12.350Z,94803.09
2023-05-12T10:32:39.144Z,94819.56
2023-05-12T10:35:10.533Z,94810.25
2023-05-12T10:37:37.757Z,94810.91
2023-05-12T10:40:05.138Z,94807.88
2023-05-12T10:42:41.678Z,94807.50
2023-05-12T10:45:17.737Z,94807.81
2023-05-12T10:47:45.056Z,94819.22
2023-05-12T10:50:14.826Z,94814.38
2023-05-12T10:52:53.893Z,94814.75
2023-05-12T10:55:31.225Z,94813.97
2023-05-12T10:58:05.253Z,94828.50
2023-05-12T11:00:33.081Z,94808.03
2023-05-12T11:03:09.716Z,94814.59
2023-05-12T11:05:37.846Z,94813.09
2023-05-12T11:08:05.405Z,94811.50
2023-05-12T11:10:33.510Z,94806.66
2023-05-12T11:13:00.625Z,94806.13
2023-05-12T11:15:28.516Z,94791.56
2023-05-12T11:17:55.114Z,94796.72
2023-05-12T11:20:23.824Z,94794.22
2023-05-12T11:22:50.925Z,94795.75
2023-05-12T11:25:18.228Z,94786.53
2023-05-12T11:27:52.802Z,94788.06
2023-05-12T11:30:19.894Z,94791.09
2023-05-12T11:32:46.919Z,94778.53
2023-05-12T11:35:18.274Z,94792.78
2023-05-12T11:37:46.101Z,94785.75
2023-05-12T11:40:16.159Z,94788.13
2023-05-12T11:42:48.318Z,94786.53
2023-05-12T11:45:22.957Z,94783.09
2023-05-12T11:47:49.742Z,94773.25
2023-05-12T11:50:25.873Z,94772.28
2023-05-12T11:52:53.165Z,94774.56
2023-05-12T11:55:22.574Z,94763.31
2023-05-12T11:58:03.307Z,94766.91
2023-05-12T12:00:35.088Z,94769.94
2023-05-12T12:03:09.119Z,94769.06
2023-05-12T12:05:35.961Z,94768.06
2023-05-12T12:08:20.302Z,94765.72
2023-05-12T12:10:47.254Z,94755.53
2023-05-12T12:13:20.668Z,94770.41
2023-05-12T12:15:48.035Z,94769.81
2023-05-12T12:18:16.532Z,94768.34
2023-05-12T12:20:43.950Z,94771.91
2023-05-12T12:23:11.234Z,94768.53
2023-05-12T12:25:37.909Z,94763.78
2023-05-12T12:28:05.112Z,94756.75
2023-05-12T12:30:31.974Z,94754.81
2023-05-12T12:32:58.556Z,94762.13
2023-05-12T12:35:25.151Z,94765.53
2023-05-12T12:37:52.372Z,94750.09
2023-05-12T12:40:20.241Z,94759.47
2023-05-12T12:42:47.018Z,94759.63
2023-05-12T12:45:13.745Z,94764.53
2023-05-12T12:47:40.731Z,94760.00
2023-05-12T12:50:09.586Z,94767.00
2023-05-12T12:52:38.033Z,94757.50
2023-05-12T12:55:06.705Z,94761.38
2023-05-12T12:57:33.358Z,94739.59
2023-05-12T12:59:59.931Z,94747.53
2023-05-12T13:02:27.171Z,94754.81
2023-05-12T13:04:53.931Z,94748.59
2023-05-12T13:07:20.898Z,94749.78
2023-05-12T13:09:47.464Z,94751.97
2023-05-12T13:12:13.989Z,94742.81
2023-05-12T13:14:40.628Z,94751.88
2023-05-12T13:17:08.125Z,94754.38
2023-05-12T13:19:37.818Z,94762.66
2023-05-12T13:22:05.071Z,94762.28
2023-05-12T13:24:31.679Z,94757.50
2023-05-12T13:26:58.357Z,94754.84
2023-05-12T13:29:25.021Z,94747.84
2023-05-12T13:31:51.657Z,94751.53
2023-05-12T13:34:18.242Z,94757.72
2023-05-12T13:36:45.037Z,94742.94
2023-05-12T13:39:12.711Z,94754.78
2023-05-12T13:41:39.353Z,94757.78
2023-05-12T13:44:06.446Z,94745.66
2023-05-12T13:46:33.080Z,94751.06
2023-05-12T13:48:59.854Z,94745.69
2023-05-12T13:51:26.636Z,94743.22
2023-05-12T13:53:53.814Z,94741.38
2023-05-12T13:56:20.883Z,94737.84
2023-05-12T13:58:47.811Z,94742.94
2023-05-12T14:01:14.873Z,94744.75
2023-05-12T14:03:42.225Z,94732.50
2023-05-12T14:06:09.366Z,94730.34
2023-05-12T14:08:36.365Z,94737.69
2023-05-12T14:11:03.429Z,94735.59
2023-05-12T14:13:31.092Z,94734.81
2023-05-12T14:15:58.273Z,94726.47
2023-05-12T14:18:25.106Z,94728.75
2023-05-12T14:20:52.233Z,94727.44
2023-05-12T14:23:18.843Z,94720.34
2023-05-12T14:25:45.616Z,94720.91
2023-05-12T14:28:12.232Z,94726.28
2023-05-12T14:30:39.072Z,94730.13
2023-05-12T14:33:05.824Z,94727.69
2023-05-12T14:35:32.623Z,94727.31
2023-05-12T14:37:59.433Z,94726.00
2023-05-12T14:40:27.229Z,94727.28
2023-05-12T14:42:54.692Z,94721.22
2023-05-12T14:45:21.916Z,94726.03
2023-05-12T14:47:49.329Z,94726.34
2023-05-12T14:50:16.056Z,94732.81
2023-05-12T14:52:42.781Z,94728.16
2023-05-12T14:55:13.977Z,94718.63
2023-05-12T14:57:44.763Z,94727.19
2023-05-12T15:00:13.729Z,94720.22
2023-05-12T15:02:41.504Z,94727.38
2023-05-12T15:05:09.543Z,94731.31
2023-05-12T15:07:36.816Z,94733.75
2023-05-12T15:10:04.396Z,94730.03
2023-05-12T15:12:31.740Z,94730.25
2023-05-12T15:15:01.220Z,94730.38
2023-05-12T15:17:28.643Z,94735.09
2023-05-12T15:19:55.868Z,94732.03
2023-05-12T15:22:22.675Z,94721.13
2023-05-12T15:24:49.239Z,94733.06
2023-05-12T15:27:15.847Z,94737.88
2023-05-12T15:29:42.609Z,94720.34
2023-05-12T15:32:09.477Z,94736.16
2023-05-12T15:34:36.303Z,94735.19
2023-05-12T15:37:02.988Z,94735.38
2023-05-12T15:39:29.693Z,94733.41
2023-05-12T15:41:56.639Z,94734.81
2023-05-12T15:44:23.417Z,94741.41
2023-05-12T15:46:50.373Z,94742.34
2023-05-12T15:49:17.286Z,94739.16
2023-05-12T15:51:44.058Z,94742.41
2023-05-12T15:54:11.435Z,94739.56
2023-05-12T15:56:38.946Z,94735.34
2023-05-12T15:59:06.018Z,94733.06
2023-05-12T16:01:32.917Z,94733.66
2023-05-12T16:04:00.129Z,94726.03
2023-05-12T16:06:27.178Z,94739.50
2023-05-12T16:08:53.898Z,94731.38
2023-05-12T16:11:20.453Z,94740.69
2023-05-12T16:13:47.213Z,94730.38
2023-05-12T16:16:14.181Z,94733.50
2023-05-12T16:18:40.914Z,94720.84
2023-05-12T16:21:08.299Z,94724.19
2023-05-12T16:23:35.010Z,94730.38
2023-05-12T16:26:01.539Z,94726.59
2023-05-12T16:28:28.125Z,94723.03
2023-05-12T16:30:54.719Z,94724.13
2023-05-12T16:33:21.497Z,94729.84
2023-05-12T16:35:48.181Z,94731.72
2023-05-12T16:38:14.773Z,94729.38
2023-05-12T16:40:41.790Z,94742.66
2023-05-12T16:43:08.340Z,94736.34
2023-05-12T16:45:34.928Z,94738.41
2023-05-12T16:48:01.543Z,94735.63
2023-05-12T16:50:28.421Z,94737.94
2023-05-12T16:52:55.080Z,94739.69
2023-05-12T16:55:23.159Z,94743.84
2023-05-12T16:57:50.289Z,94742.53
2023-05-12T17:00:17.292Z,94753.63
2023-05-12T17:02:44.062Z,94749.03
2023-05-12T17:05:10.738Z,94755.06
2023-05-12T17:07:37.284Z,94745.41
2023-05-12T17:10:04.038Z,94749.28
2023-05-12T17:12:30.648Z,94754.75
2023-05-12T17:15:06.922Z,94760.41
2023-05-12T17:17:34.686Z,94766.38
2023-05-12T17:20:01.483Z,94760.88
2023-05-12T17:22:28.239Z,94764.38
2023-05-12T17:24:54.830Z,94760.44
2023-05-12T17:27:21.623Z,94757.13
2023-05-12T17:29:48.295Z,94771.28
2023-05-12T17:32:14.867Z,94763.81
2023-05-12T17:34:41.521Z,94763.59
2023-05-12T17:37:08.403Z,94766.47
2023-05-12T17:39:34.974Z,94767.88
2023-05-12T17:42:01.620Z,94751.13
2023-05-12T17:44:28.303Z,94758.91
2023-05-12T17:46:54.934Z,94766.47
2023-05-12T17:49:21.518Z,94770.63
2023-05-12T17:51:49.529Z,94765.53
2023-05-12T17:54:16.269Z,94773.69
2023-05-12T17:56:44.766Z,94771.88
2023-05-12T17:59:12.420Z,94777.53
2023-05-12T18:01:39.714Z,94766.66
2023-05-12T18:04:06.424Z,94779.97
2023-05-12T18:06:33.296Z,94779.78
2023-05-12T18:08:59.943Z,94778.34
2023-05-12T18:11:26.653Z,94784.22
2023-05-12T18:13:53.786Z,94783.94
2023-05-12T18:16:28.319Z,94789.47
2023-05-12T18:18:56.188Z,94796.22
2023-05-12T18:21:22.921Z,94792.53
2023-05-12T18:23:49.479Z,94796.25
2023-05-12T18:26:16.167Z,94797.19
2023-05-12T18:28:42.770Z,94804.94
2023-05-12T18:31:15.963Z,94799.75
2023-05-12T18:33:46.620Z,94807.94
2023-05-12T18:36:13.345Z,94806.53
2023-05-12T18:38:40.124Z,94820.25
2023-05-12T18:41:07.249Z,94824.78
2023-05-12T18:43:34.927Z,94826.72
2023-05-12T18:46:02.458Z,94825.06
2023-05-12T18:48:29.146Z,94823.22
2023-05-12T18:50:56.382Z,94820.84
2023-05-12T18:53:23.240Z,94817.91
2023-05-12T18:55:50.368Z,94812.59
2023-05-12T18:58:17.082Z,94818.59
2023-05-12T19:00:44.197Z,94825.31
2023-05-12T19:03:11.039Z,94827.97
2023-05-12T19:05:38.844Z,94820.59
2023-05-12T19:08:05.896Z,94819.06
2023-05-12T19:10:32.434Z,94832.44
2023-05-12T19:12:58.971Z,94827.63
2023-05-12T19:15:25.915Z,94826.97
2023-05-12T19:17:52.509Z,94838.03
2023-05-12T19:20:19.158Z,94840.31
2023-05-12T19:22:46.404Z,94844.31
2023-05-12T19:25:17.838Z,94849.44
2023-05-12T19:27:45.729Z,94859.34
2023-05-12T19:30:14.065Z,94865.97
2023-05-12T19:32:42.432Z,94862.97
2023-05-12T19:35:12.481Z,94870.56
2023-05-12T19:37:39.666Z,94873.66
2023-05-12T19:40:06.894Z,94874.38
2023-05-12T19:42:34.623Z,94876.97
2023-05-12T19:45:01.308Z,94875.53
2023-05-12T19:47:28.116Z,94864.81
2023-05-12T19:49:55.122Z,94870.84
2023-05-12T19:52:24.770Z,94873.22
2023-05-12T19:54:52.031Z,94869.63
2023-05-12T19:57:19.815Z,94869.06
2023-05-12T19:59:46.606Z,94871.09
2023-05-12T20:02:15.523Z,94869.00
2023-05-12T20:04:42.173Z,94879.28
2023-05-12T20:07:09.910Z,94889.34
2023-05-12T20:09:37.140Z,94881.44
2023-05-12T20:12:07.899Z,94877.63
2023-05-12T20:14:36.146Z,94884.44
2023-05-12T20:17:07.435Z,94889.97
2023-05-12T20:19:34.086Z,94897.66
2023-05-12T20:22:01.120Z,94892.97
2023-05-12T20:24:27.831Z,94896.78
2023-05-12T20:26:54.846Z,94891.75
2023-05-12T20:29:21.513Z,94894.97
2023-05-12T20:31:49.430Z,94902.78
2023-05-12T20:34:16.473Z,94898.28
2023-05-12T20:36:47.038Z,94900.59
2023-05-12T20:39:15.390Z,94892.94
2023-05-12T20:41:43.527Z,94902.72
2023-05-12T20:44:10.179Z,94905.84
2023-05-12T20:46:38.453Z,94906.56
2023-05-12T20:49:05.719Z,94898.78
2023-05-12T20:51:32.743Z,94902.75
2023-05-12T20:53:59.551Z,94908.81
2023-05-12T20:56:26.946Z,94898.56
2023-05-12T20:58:53.698Z,94907.81
2023-05-12T21:01:20.360Z,94917.78
2023-05-12T21:03:47.143Z,94913.31
2023-05-12T21:06:13.781Z,94917.22
2023-05-12T21:08:40.412Z,94922.44
2023-05-12T21:11:15.185Z,94919.53
2023-05-12T21:13:42.188Z,94921.13
2023-05-12T21:16:08.800Z,94924.00
2023-05-12T21:18:35.658Z,94921.41
2023-05-12T21:21:02.289Z,94918.03
2023-05-12T21:23:29.018Z,94924.34
2023-05-12T21:25:55.672Z,94912.28
2023-05-12T21:28:22.209Z,94915.66
2023-05-12T21:30:48.857Z,94923.94
2023-05-12T21:33:15.503Z,94935.28
2023-05-12T21:35:42.145Z,94924.34
2023-05-12T21:38:10.107Z,94930.31
2023-05-12T21:40:37.875Z,94934.28
2023-05-12T21:43:04.568Z,94939.59
2023-05-12T21:45:31.103Z,94929.94
2023-05-12T21:47:57.716Z,94941.91
2023-05-12T21:50:24.262Z,94941.19
2023-05-12T21:52:50.832Z,94935.72
2023-05-12T21:55:17.530Z,94944.78
2023-05-12T21:57:44.078Z,94948.97
2023-05-12T22:00:12.778Z,94940.69
2023-05-12T22:02:39.402Z,94948.19
2023-05-12T22:05:06.613Z,94951.25
2023-05-12T22:07:33.464Z,94946.78
2023-05-12T22:10:00.520Z,94952.97
2023-05-12T22:12:27.168Z,94948.06
2023-05-12T22:14:54.248Z,94950.66
2023-05-12T22:17:20.860Z,94950.72
2023-05-12T22:19:47.609Z,94956.72
2023-05-12T22:22:14.203Z,94952.31
2023-05-12T22:24:40.767Z,94953.38
2023-05-12T22:27:07.382Z,94956.13
2023-05-12T22:29:33.863Z,94950.09
2023-05-12T22:32:00.926Z,94953.09
2023-05-12T22:34:27.460Z,94959.50
2023-05-12T22:36:53.987Z,94954.66
2023-05-12T22:39:20.610Z,94947.53
2023-05-12T22:41:47.098Z,94958.41
2023-05-12T22:44:13.636Z,94954.28
2023-05-12T22:46:40.527Z,94956.91
2023-05-12T22:49:07.086Z,94953.50
2023-05-12T22:51:34.313Z,94956.13
2023-05-12T22:54:00.933Z,94960.63
2023-05-12T22:56:27.508Z,94961.75
2023-05-12T22:58:54.150Z,94954.66
2023-05-12T23:01:20.863Z,94960.31
2023-05-12T23:03:47.461Z,94954.69
2023-05-12T23:06:14.184Z,94955.44
2023-05-12T23:08:40.700Z,94958.06
2023-05-12T23:11:07.314Z,94955.72
2023-05-12T23:13:33.844Z,94957.69
2023-05-12T23:16:00.514Z,94958.06
2023-05-12T23:18:27.101Z,94963.69
2023-05-12T23:20:53.660Z,94964.03
2023-05-12T23:23:20.258Z,94966.00
2023-05-12T23:25:47.432Z,94972.03
2023-05-12T23:28:13.939Z,94963.03
2023-05-12T23:30:40.525Z,94963.78
2023-05-12T23:33:07.301Z,94958.50
2023-05-12T23:35:33.987Z,94961.53
2023-05-12T23:38:00.638Z,94963.78
2023-05-12T23:40:27.269Z,94964.88
2023-05-12T23:42:53.770Z,94962.13
2023-05-12T23:45:20.351Z,94955.47
2023-05-12T23:47:47.010Z,94969.78
2023-05-12T23:50:13.642Z,94968.28
2023-05-12T23:52:40.194Z,94961.41
2023-05-12T23:55:07.436Z,94966.31
2023-05-12T23:57:33.992Z,94956.88
